Airfield :
LOGIN :

Register | Disclaimer

   EN    FR    IT 

 










Legend :    VFR   Marginal VFR   IFR   Intensive IFR   Very Intensive IFR
Visi :
Ceiling :
>= 8 km
>= 3000ft
5 to 8 km
1000 to 3000 ft
1500m to 5 km
500 to 1000 ft
800 to 1500m
200 to 500 ft
< 800m
< 200 ft
Symbols :   Thunderstorms  Fog  Heavy snow  Heavy precipitations  Wind > 20 kt
SIGMETs :     Misc.  Thunderstorms  Icing  Turbulence  Mountain Waves  Volcanic Ashes







- Airport Elevation : 935 ft


EBFS - Florennes

CURRENT METAR :
  • 250925Z 30011KT 9999 SCT022 SCT040 06/01 Q1026 WHT BLU TEMPO WHT

EXPIRED METARs :
  • 250855Z 30012KT 9999 SCT020 SCT040 05/01 Q1025 WHT BLU TEMPO WHT
  • 250825Z 32011KT 6000 -SHRA SCT016 SCT040 05/01 Q1025 WHT BLU TEMPO WHT
  • 250755Z 31012KT 9999 FEW016 SCT050 05/02 Q1025 BLU BLU TEMPO WHT
  • 250725Z 30009KT 9999 FEW015 SCT050 04/02 Q1024 BLU BLU TEMPO WHT
  • 250655Z 29010KT 9999 FEW015 SCT050 04/02 Q1024 BLU BLU TEMPO WHT

TAF TAF EBFS
Valid from the 25 at 10:00 until the 25 at 19:00 UTC


250841Z 2510/2519 33013G25KT 9999 SCT018 SCT025
TEMPO 2510/2516 33015G30KT FEW022 SCT040
PROB30
TEMPO 2510/2513 4500 -SHRA SCT014 BKN020
BECMG 2517/2519 34011G22KT SCT012 BKN016
No reported NOTAMs for that airfield.



MET'MAP, your aeronautical weather chart ! - Copyright ORBIFLY December 2007 - Disclaimer

ORBIFLY MET'MAP TEAM :

Programming & Development : Alexandra Zaïnal
Concept & Development : Baudouin d'Aumeries
Co-Development & Prog : Marc-Olivier Méhu
Technical & hardware support : Manuel Goepfert

Contact : metmap@orbifly.com




SOURCES & CREDITS :

   NOAA